sensor_id;sensor_type;location;lat;lon;timestamp;pressure;altitude;pressure_sealevel;temperature;humidity
23363;BME280;11853;48.080;11.960;2023-11-19T00:00:37;94880.00;;;5.22;100.00
23363;BME280;11853;48.080;11.960;2023-11-19T00:03:03;94874.97;;;5.18;100.00
23363;BME280;11853;48.080;11.960;2023-11-19T00:05:28;94874.25;;;5.28;100.00
23363;BME280;11853;48.080;11.960;2023-11-19T00:07:54;94875.81;;;5.19;100.00
23363;BME280;11853;48.080;11.960;2023-11-19T00:10:20;94871.38;;;5.19;100.00
23363;BME280;11853;48.080;11.960;2023-11-19T00:12:49;94870.91;;;5.26;100.00
23363;BME280;11853;48.080;11.960;2023-11-19T00:15:16;94862.44;;;5.33;100.00
23363;BME280;11853;48.080;11.960;2023-11-19T00:17:45;94868.28;;;5.37;100.00
23363;BME280;11853;48.080;11.960;2023-11-19T00:20:16;94865.88;;;5.34;100.00
23363;BME280;11853;48.080;11.960;2023-11-19T00:22:42;94861.34;;;5.36;100.00
23363;BME280;11853;48.080;11.960;2023-11-19T00:25:08;94860.28;;;5.38;100.00
23363;BME280;11853;48.080;11.960;2023-11-19T00:27:35;94853.31;;;5.37;100.00
23363;BME280;11853;48.080;11.960;2023-11-19T00:30:01;94850.34;;;5.42;100.00
23363;BME280;11853;48.080;11.960;2023-11-19T00:32:27;94840.38;;;5.57;100.00
23363;BME280;11853;48.080;11.960;2023-11-19T00:34:52;94836.19;;;5.65;100.00
23363;BME280;11853;48.080;11.960;2023-11-19T00:37:18;94836.09;;;5.56;100.00
23363;BME280;11853;48.080;11.960;2023-11-19T00:39:44;94831.31;;;5.50;100.00
23363;BME280;11853;48.080;11.960;2023-11-19T00:42:11;94824.53;;;5.36;100.00
23363;BME280;11853;48.080;11.960;2023-11-19T00:44:40;94819.03;;;5.39;100.00
23363;BME280;11853;48.080;11.960;2023-11-19T00:47:07;94822.38;;;5.41;100.00
23363;BME280;11853;48.080;11.960;2023-11-19T00:49:34;94825.94;;;5.40;100.00
23363;BME280;11853;48.080;11.960;2023-11-19T00:52:00;94820.69;;;5.40;100.00
23363;BME280;11853;48.080;11.960;2023-11-19T00:54:27;94820.59;;;5.30;100.00
23363;BME280;11853;48.080;11.960;2023-11-19T00:56:53;94806.69;;;5.51;100.00
23363;BME280;11853;48.080;11.960;2023-11-19T00:59:19;94805.72;;;5.40;100.00
23363;BME280;11853;48.080;11.960;2023-11-19T01:01:45;94812.94;;;5.38;100.00
23363;BME280;11853;48.080;11.960;2023-11-19T01:04:11;94815.19;;;5.32;100.00
23363;BME280;11853;48.080;11.960;2023-11-19T01:06:36;94809.72;;;5.24;100.00
23363;BME280;11853;48.080;11.960;2023-11-19T01:09:02;94815.41;;;5.40;100.00
23363;BME280;11853;48.080;11.960;2023-11-19T01:11:28;94801.44;;;5.39;100.00
23363;BME280;11853;48.080;11.960;2023-11-19T01:13:54;94806.78;;;5.49;100.00
23363;BME280;11853;48.080;11.960;2023-11-19T01:16:19;94798.56;;;5.42;100.00
23363;BME280;11853;48.080;11.960;2023-11-19T01:18:49;94797.72;;;5.42;100.00
23363;BME280;11853;48.080;11.960;2023-11-19T01:21:15;94798.06;;;5.49;100.00
23363;BME280;11853;48.080;11.960;2023-11-19T01:23:42;94799.75;;;5.50;100.00
23363;BME280;11853;48.080;11.960;2023-11-19T01:26:09;94802.97;;;5.53;100.00
23363;BME280;11853;48.080;11.960;2023-11-19T01:28:36;94805.13;;;5.48;100.00
23363;BME280;11853;48.080;11.960;2023-11-19T01:31:02;94799.94;;;5.58;100.00
23363;BME280;11853;48.080;11.960;2023-11-19T01:33:29;94793.13;;;5.67;100.00
23363;BME280;11853;48.080;11.960;2023-11-19T01:35:55;94779.97;;;5.67;100.00
23363;BME280;11853;48.080;11.960;2023-11-19T01:38:24;94782.47;;;5.68;100.00
23363;BME280;11853;48.080;11.960;2023-11-19T01:40:50;94779.47;;;5.73;100.00
23363;BME280;11853;48.080;11.960;2023-11-19T01:43:51;94780.44;;;5.60;100.00
23363;BME280;11853;48.080;11.960;2023-11-19T01:46:17;94776.13;;;5.71;100.00
23363;BME280;11853;48.080;11.960;2023-11-19T01:48:45;94762.00;;;5.72;100.00
23363;BME280;11853;48.080;11.960;2023-11-19T01:51:14;94772.78;;;5.69;100.00
23363;BME280;11853;48.080;11.960;2023-11-19T01:53:43;94763.44;;;5.76;100.00
23363;BME280;11853;48.080;11.960;2023-11-19T01:56:09;94763.19;;;5.79;100.00
23363;BME280;11853;48.080;11.960;2023-11-19T01:58:37;94765.56;;;5.82;100.00
23363;BME280;11853;48.080;11.960;2023-11-19T02:01:05;94763.75;;;5.82;100.00
23363;BME280;11853;48.080;11.960;2023-11-19T02:03:33;94752.38;;;5.93;100.00
23363;BME280;11853;48.080;11.960;2023-11-19T02:06:02;94751.72;;;6.01;100.00
23363;BME280;11853;48.080;11.960;2023-11-19T02:08:29;94745.66;;;5.89;100.00
23363;BME280;11853;48.080;11.960;2023-11-19T02:10:55;94751.16;;;5.97;100.00
23363;BME280;11853;48.080;11.960;2023-11-19T02:13:26;94740.53;;;5.87;100.00
23363;BME280;11853;48.080;11.960;2023-11-19T02:15:52;94745.47;;;5.81;100.00
23363;BME280;11853;48.080;11.960;2023-11-19T02:18:19;94740.31;;;5.79;100.00
23363;BME280;11853;48.080;11.960;2023-11-19T02:20:46;94744.88;;;5.77;100.00
23363;BME280;11853;48.080;11.960;2023-11-19T02:23:13;94731.03;;;5.75;100.00
23363;BME280;11853;48.080;11.960;2023-11-19T02:25:40;94724.41;;;5.81;100.00
23363;BME280;11853;48.080;11.960;2023-11-19T02:28:06;94719.84;;;5.83;100.00
23363;BME280;11853;48.080;11.960;2023-11-19T02:30:32;94716.69;;;5.89;100.00
23363;BME280;11853;48.080;11.960;2023-11-19T02:32:59;94707.75;;;5.80;100.00
23363;BME280;11853;48.080;11.960;2023-11-19T02:35:31;94712.44;;;5.77;100.00
23363;BME280;11853;48.080;11.960;2023-11-19T02:37:58;94701.41;;;5.83;100.00
23363;BME280;11853;48.080;11.960;2023-11-19T02:40:29;94695.56;;;5.79;100.00
23363;BME280;11853;48.080;11.960;2023-11-19T02:42:55;94692.13;;;5.79;100.00
23363;BME280;11853;48.080;11.960;2023-11-19T02:45:25;94681.06;;;5.85;100.00
23363;BME280;11853;48.080;11.960;2023-11-19T02:47:53;94686.31;;;5.96;100.00
23363;BME280;11853;48.080;11.960;2023-11-19T02:50:20;94682.94;;;5.94;100.00
23363;BME280;11853;48.080;11.960;2023-11-19T02:52:54;94674.00;;;5.85;100.00
23363;BME280;11853;48.080;11.960;2023-11-19T02:55:22;94678.44;;;5.85;100.00
23363;BME280;11853;48.080;11.960;2023-11-19T02:57:49;94677.88;;;5.81;100.00
23363;BME280;11853;48.080;11.960;2023-11-19T03:00:19;94669.50;;;5.76;100.00
23363;BME280;11853;48.080;11.960;2023-11-19T03:02:49;94667.00;;;5.75;100.00
23363;BME280;11853;48.080;11.960;2023-11-19T03:05:24;94662.91;;;5.82;100.00
23363;BME280;11853;48.080;11.960;2023-11-19T03:07:50;94647.28;;;5.69;100.00
23363;BME280;11853;48.080;11.960;2023-11-19T03:10:15;94643.25;;;5.86;100.00
23363;BME280;11853;48.080;11.960;2023-11-19T03:12:42;94651.41;;;5.83;100.00
23363;BME280;11853;48.080;11.960;2023-11-19T03:15:08;94638.69;;;5.88;100.00
23363;BME280;11853;48.080;11.960;2023-11-19T03:17:40;94641.22;;;5.90;100.00
23363;BME280;11853;48.080;11.960;2023-11-19T03:20:08;94637.59;;;5.91;100.00
23363;BME280;11853;48.080;11.960;2023-11-19T03:22:40;94635.78;;;5.91;100.00
23363;BME280;11853;48.080;11.960;2023-11-19T03:25:10;94634.81;;;5.92;100.00
23363;BME280;11853;48.080;11.960;2023-11-19T03:27:39;94645.16;;;5.95;100.00
23363;BME280;11853;48.080;11.960;2023-11-19T03:30:08;94628.22;;;5.98;100.00
23363;BME280;11853;48.080;11.960;2023-11-19T03:32:35;94625.94;;;6.04;100.00
23363;BME280;11853;48.080;11.960;2023-11-19T03:35:01;94626.22;;;6.11;100.00
23363;BME280;11853;48.080;11.960;2023-11-19T03:37:29;94629.41;;;6.05;100.00
23363;BME280;11853;48.080;11.960;2023-11-19T03:39:58;94623.81;;;5.98;100.00
23363;BME280;11853;48.080;11.960;2023-11-19T03:42:28;94625.94;;;6.04;100.00
23363;BME280;11853;48.080;11.960;2023-11-19T03:44:55;94621.22;;;6.08;100.00
23363;BME280;11853;48.080;11.960;2023-11-19T03:47:22;94619.88;;;6.14;100.00
23363;BME280;11853;48.080;11.960;2023-11-19T03:49:51;94620.59;;;6.16;100.00
23363;BME280;11853;48.080;11.960;2023-11-19T03:52:19;94618.47;;;6.09;100.00
23363;BME280;11853;48.080;11.960;2023-11-19T03:54:45;94619.44;;;6.08;100.00
23363;BME280;11853;48.080;11.960;2023-11-19T03:57:14;94617.50;;;6.11;100.00
23363;BME280;11853;48.080;11.960;2023-11-19T03:59:41;94626.81;;;6.15;100.00
23363;BME280;11853;48.080;11.960;2023-11-19T04:02:06;94629.88;;;6.20;100.00
23363;BME280;11853;48.080;11.960;2023-11-19T04:04:33;94630.19;;;6.26;100.00
23363;BME280;11853;48.080;11.960;2023-11-19T04:07:00;94624.53;;;6.31;100.00
23363;BME280;11853;48.080;11.960;2023-11-19T04:09:26;94613.72;;;6.34;100.00
23363;BME280;11853;48.080;11.960;2023-11-19T04:11:52;94617.06;;;6.36;100.00
23363;BME280;11853;48.080;11.960;2023-11-19T04:14:17;94619.44;;;6.39;100.00
23363;BME280;11853;48.080;11.960;2023-11-19T04:16:44;94617.25;;;6.44;100.00
23363;BME280;11853;48.080;11.960;2023-11-19T04:19:13;94614.44;;;6.46;100.00
23363;BME280;11853;48.080;11.960;2023-11-19T04:21:42;94609.19;;;6.46;100.00
23363;BME280;11853;48.080;11.960;2023-11-19T04:27:30;94612.38;;;6.49;100.00
23363;BME280;11853;48.080;11.960;2023-11-19T04:29:56;94625.31;;;6.52;100.00
23363;BME280;11853;48.080;11.960;2023-11-19T04:32:22;94621.81;;;6.52;100.00
23363;BME280;11853;48.080;11.960;2023-11-19T04:34:47;94623.25;;;6.56;100.00
23363;BME280;11853;48.080;11.960;2023-11-19T04:37:13;94623.09;;;6.58;100.00
23363;BME280;11853;48.080;11.960;2023-11-19T04:39:39;94623.69;;;6.61;100.00
23363;BME280;11853;48.080;11.960;2023-11-19T04:42:05;94619.34;;;6.60;100.00
23363;BME280;11853;48.080;11.960;2023-11-19T04:44:32;94618.25;;;6.63;100.00
23363;BME280;11853;48.080;11.960;2023-11-19T04:46:57;94625.88;;;6.66;100.00
23363;BME280;11853;48.080;11.960;2023-11-19T04:49:23;94628.53;;;6.66;100.00
23363;BME280;11853;48.080;11.960;2023-11-19T04:51:49;94627.56;;;6.67;100.00
23363;BME280;11853;48.080;11.960;2023-11-19T04:54:16;94620.06;;;6.72;100.00
23363;BME280;11853;48.080;11.960;2023-11-19T04:56:45;94617.44;;;6.72;100.00
23363;BME280;11853;48.080;11.960;2023-11-19T04:59:11;94620.06;;;6.72;100.00
23363;BME280;11853;48.080;11.960;2023-11-19T05:01:37;94624.13;;;6.76;100.00
23363;BME280;11853;48.080;11.960;2023-11-19T05:04:03;94623.84;;;6.79;100.00
23363;BME280;11853;48.080;11.960;2023-11-19T05:06:29;94617.06;;;6.86;100.00
23363;BME280;11853;48.080;11.960;2023-11-19T05:08:59;94628.72;;;6.93;100.00
23363;BME280;11853;48.080;11.960;2023-11-19T05:11:33;94630.69;;;7.01;100.00
23363;BME280;11853;48.080;11.960;2023-11-19T05:14:00;94630.69;;;7.11;100.00
23363;BME280;11853;48.080;11.960;2023-11-19T05:16:25;94630.69;;;7.20;100.00
23363;BME280;11853;48.080;11.960;2023-11-19T05:18:51;94632.66;;;7.28;100.00
23363;BME280;11853;48.080;11.960;2023-11-19T05:21:17;94637.09;;;7.37;100.00
23363;BME280;11853;48.080;11.960;2023-11-19T05:23:43;94630.97;;;7.47;100.00
23363;BME280;11853;48.080;11.960;2023-11-19T05:26:09;94636.41;;;7.55;100.00
23363;BME280;11853;48.080;11.960;2023-11-19T05:28:38;94646.28;;;7.62;100.00
23363;BME280;11853;48.080;11.960;2023-11-19T05:31:05;94633.22;;;7.71;100.00
23363;BME280;11853;48.080;11.960;2023-11-19T05:33:31;94631.13;;;7.74;100.00
23363;BME280;11853;48.080;11.960;2023-11-19T05:35:57;94641.09;;;7.80;100.00
23363;BME280;11853;48.080;11.960;2023-11-19T05:38:22;94642.22;;;7.87;100.00
23363;BME280;11853;48.080;11.960;2023-11-19T05:40:48;94649.56;;;7.94;100.00
23363;BME280;11853;48.080;11.960;2023-11-19T05:43:15;94650.81;;;7.99;100.00
23363;BME280;11853;48.080;11.960;2023-11-19T05:45:42;94657.34;;;8.05;100.00
23363;BME280;11853;48.080;11.960;2023-11-19T05:48:14;94657.47;;;8.13;100.00
23363;BME280;11853;48.080;11.960;2023-11-19T05:50:40;94646.91;;;8.13;100.00
23363;BME280;11853;48.080;11.960;2023-11-19T05:53:06;94649.66;;;8.21;100.00
23363;BME280;11853;48.080;11.960;2023-11-19T05:55:41;94650.75;;;8.28;100.00
23363;BME280;11853;48.080;11.960;2023-11-19T05:58:22;94649.47;;;8.32;100.00
23363;BME280;11853;48.080;11.960;2023-11-19T06:00:48;94645.31;;;8.40;100.00
23363;BME280;11853;48.080;11.960;2023-11-19T06:03:16;94656.13;;;8.46;100.00
23363;BME280;11853;48.080;11.960;2023-11-19T06:05:45;94653.59;;;8.54;100.00
23363;BME280;11853;48.080;11.960;2023-11-19T06:08:17;94658.88;;;8.64;100.00
23363;BME280;11853;48.080;11.960;2023-11-19T06:10:44;94656.91;;;8.66;100.00
23363;BME280;11853;48.080;11.960;2023-11-19T06:13:14;94649.94;;;8.65;100.00
23363;BME280;11853;48.080;11.960;2023-11-19T06:15:44;94658.94;;;8.72;100.00
23363;BME280;11853;48.080;11.960;2023-11-19T06:18:10;94649.47;;;8.79;100.00
23363;BME280;11853;48.080;11.960;2023-11-19T06:20:37;94645.53;;;8.84;100.00
23363;BME280;11853;48.080;11.960;2023-11-19T06:23:03;94643.97;;;8.91;100.00
23363;BME280;11853;48.080;11.960;2023-11-19T06:25:32;94648.97;;;8.94;100.00
23363;BME280;11853;48.080;11.960;2023-11-19T06:28:00;94645.03;;;8.98;100.00
23363;BME280;11853;48.080;11.960;2023-11-19T06:30:29;94662.59;;;8.99;100.00
23363;BME280;11853;48.080;11.960;2023-11-19T06:32:56;94670.25;;;9.02;100.00
23363;BME280;11853;48.080;11.960;2023-11-19T06:35:22;94653.06;;;9.06;100.00
23363;BME280;11853;48.080;11.960;2023-11-19T06:37:48;94655.13;;;9.12;100.00
23363;BME280;11853;48.080;11.960;2023-11-19T06:40:14;94645.22;;;9.14;100.00
23363;BME280;11853;48.080;11.960;2023-11-19T06:42:41;94646.22;;;9.13;100.00
23363;BME280;11853;48.080;11.960;2023-11-19T06:45:07;94645.38;;;9.13;100.00
23363;BME280;11853;48.080;11.960;2023-11-19T06:47:32;94656.66;;;9.15;100.00
23363;BME280;11853;48.080;11.960;2023-11-19T06:49:58;94661.94;;;9.15;100.00
23363;BME280;11853;48.080;11.960;2023-11-19T06:52:24;94661.50;;;9.19;100.00
23363;BME280;11853;48.080;11.960;2023-11-19T06:54:50;94665.81;;;9.20;100.00
23363;BME280;11853;48.080;11.960;2023-11-19T06:57:16;94663.69;;;9.24;100.00
23363;BME280;11853;48.080;11.960;2023-11-19T06:59:42;94652.13;;;9.25;100.00
23363;BME280;11853;48.080;11.960;2023-11-19T07:02:08;94661.59;;;9.28;100.00
23363;BME280;11853;48.080;11.960;2023-11-19T07:04:34;94665.75;;;9.30;100.00
23363;BME280;11853;48.080;11.960;2023-11-19T07:07:00;94663.94;;;9.31;100.00
23363;BME280;11853;48.080;11.960;2023-11-19T07:09:26;94666.81;;;9.37;100.00
23363;BME280;11853;48.080;11.960;2023-11-19T07:11:52;94666.81;;;9.37;100.00
23363;BME280;11853;48.080;11.960;2023-11-19T07:17:22;94668.47;;;9.38;100.00
23363;BME280;11853;48.080;11.960;2023-11-19T07:19:49;94673.50;;;9.41;100.00
23363;BME280;11853;48.080;11.960;2023-11-19T07:22:15;94679.31;;;9.45;100.00
23363;BME280;11853;48.080;11.960;2023-11-19T07:24:41;94679.84;;;9.48;100.00
23363;BME280;11853;48.080;11.960;2023-11-19T07:27:07;94681.34;;;9.51;100.00
23363;BME280;11853;48.080;11.960;2023-11-19T07:29:37;94682.34;;;9.50;100.00
23363;BME280;11853;48.080;11.960;2023-11-19T07:32:03;94686.34;;;9.54;100.00
23363;BME280;11853;48.080;11.960;2023-11-19T07:34:28;94685.34;;;9.55;100.00
23363;BME280;11853;48.080;11.960;2023-11-19T07:36:54;94690.34;;;9.58;100.00
23363;BME280;11853;48.080;11.960;2023-11-19T07:39:24;94696.34;;;9.60;100.00
23363;BME280;11853;48.080;11.960;2023-11-19T07:41:50;94693.53;;;9.62;100.00
23363;BME280;11853;48.080;11.960;2023-11-19T07:44:16;94688.25;;;9.62;100.00
23363;BME280;11853;48.080;11.960;2023-11-19T07:46:41;94685.44;;;9.63;100.00
23363;BME280;11853;48.080;11.960;2023-11-19T07:49:10;94698.22;;;9.68;100.00
23363;BME280;11853;48.080;11.960;2023-11-19T07:51:36;94698.75;;;9.72;100.00
23363;BME280;11853;48.080;11.960;2023-11-19T07:54:05;94702.75;;;9.76;100.00
23363;BME280;11853;48.080;11.960;2023-11-19T07:56:33;94710.56;;;9.77;100.00
23363;BME280;11853;48.080;11.960;2023-11-19T07:59:02;94700.50;;;9.81;100.00
23363;BME280;11853;48.080;11.960;2023-11-19T08:01:28;94706.19;;;9.86;100.00
23363;BME280;11853;48.080;11.960;2023-11-19T08:03:57;94707.38;;;9.91;100.00
23363;BME280;11853;48.080;11.960;2023-11-19T08:06:23;94694.00;;;9.93;100.00
23363;BME280;11853;48.080;11.960;2023-11-19T08:08:49;94697.63;;;9.92;100.00
23363;BME280;11853;48.080;11.960;2023-11-19T08:11:14;94707.16;;;10.03;100.00
23363;BME280;11853;48.080;11.960;2023-11-19T08:13:40;94707.28;;;10.01;100.00
23363;BME280;11853;48.080;11.960;2023-11-19T08:16:06;94703.97;;;9.99;100.00
23363;BME280;11853;48.080;11.960;2023-11-19T08:18:32;94712.91;;;9.98;100.00
23363;BME280;11853;48.080;11.960;2023-11-19T08:20:58;94710.94;;;10.00;100.00
23363;BME280;11853;48.080;11.960;2023-11-19T08:23:26;94710.63;;;10.03;100.00
23363;BME280;11853;48.080;11.960;2023-11-19T08:25:57;94716.09;;;10.02;100.00
23363;BME280;11853;48.080;11.960;2023-11-19T08:28:24;94714.78;;;10.06;100.00
23363;BME280;11853;48.080;11.960;2023-11-19T08:30:50;94715.31;;;10.09;100.00
23363;BME280;11853;48.080;11.960;2023-11-19T08:33:16;94717.00;;;10.10;100.00
23363;BME280;11853;48.080;11.960;2023-11-19T08:35:42;94714.03;;;10.13;100.00
23363;BME280;11853;48.080;11.960;2023-11-19T08:38:08;94720.47;;;10.11;100.00
23363;BME280;11853;48.080;11.960;2023-11-19T08:40:33;94717.97;;;10.09;100.00
23363;BME280;11853;48.080;11.960;2023-11-19T08:42:59;94704.56;;;10.11;100.00
23363;BME280;11853;48.080;11.960;2023-11-19T08:45:25;94720.00;;;10.15;100.00
23363;BME280;11853;48.080;11.960;2023-11-19T08:47:51;94716.53;;;10.15;100.00
23363;BME280;11853;48.080;11.960;2023-11-19T08:50:17;94723.34;;;10.18;100.00
23363;BME280;11853;48.080;11.960;2023-11-19T08:52:42;94720.38;;;10.21;100.00
23363;BME280;11853;48.080;11.960;2023-11-19T08:55:08;94728.03;;;10.24;100.00
23363;BME280;11853;48.080;11.960;2023-11-19T08:57:35;94732.59;;;10.31;100.00
23363;BME280;11853;48.080;11.960;2023-11-19T09:00:01;94720.97;;;10.50;100.00
23363;BME280;11853;48.080;11.960;2023-11-19T09:02:28;94720.50;;;10.55;100.00
23363;BME280;11853;48.080;11.960;2023-11-19T09:04:53;94726.63;;;10.55;100.00
23363;BME280;11853;48.080;11.960;2023-11-19T09:07:19;94716.31;;;10.70;100.00
23363;BME280;11853;48.080;11.960;2023-11-19T09:09:45;94719.47;;;10.74;100.00
23363;BME280;11853;48.080;11.960;2023-11-19T09:12:11;94721.69;;;10.60;100.00
23363;BME280;11853;48.080;11.960;2023-11-19T09:14:36;94718.84;;;10.80;100.00
23363;BME280;11853;48.080;11.960;2023-11-19T09:17:02;94719.16;;;10.77;100.00
23363;BME280;11853;48.080;11.960;2023-11-19T09:19:28;94720.72;;;10.88;100.00
23363;BME280;11853;48.080;11.960;2023-11-19T09:21:53;94723.56;;;10.94;100.00
23363;BME280;11853;48.080;11.960;2023-11-19T09:24:19;94720.59;;;10.97;100.00
23363;BME280;11853;48.080;11.960;2023-11-19T09:26:48;94727.84;;;10.95;100.00
23363;BME280;11853;48.080;11.960;2023-11-19T09:29:14;94723.91;;;10.99;100.00
23363;BME280;11853;48.080;11.960;2023-11-19T09:31:43;94724.66;;;11.18;100.00
23363;BME280;11853;48.080;11.960;2023-11-19T09:34:09;94711.97;;;11.03;100.00
23363;BME280;11853;48.080;11.960;2023-11-19T09:36:35;94715.69;;;11.11;100.00
23363;BME280;11853;48.080;11.960;2023-11-19T09:39:00;94720.03;;;11.20;100.00
23363;BME280;11853;48.080;11.960;2023-11-19T09:41:27;94717.72;;;11.25;100.00
23363;BME280;11853;48.080;11.960;2023-11-19T09:43:58;94729.75;;;11.45;100.00
23363;BME280;11853;48.080;11.960;2023-11-19T09:46:32;94721.75;;;11.37;100.00
23363;BME280;11853;48.080;11.960;2023-11-19T09:49:04;94723.97;;;11.16;100.00
23363;BME280;11853;48.080;11.960;2023-11-19T09:51:33;94719.66;;;11.15;100.00
23363;BME280;11853;48.080;11.960;2023-11-19T09:53:58;94727.34;;;11.26;100.00
23363;BME280;11853;48.080;11.960;2023-11-19T09:56:25;94720.53;;;11.23;100.00
23363;BME280;11853;48.080;11.960;2023-11-19T09:58:59;94724.69;;;11.26;100.00
23363;BME280;11853;48.080;11.960;2023-11-19T10:01:25;94722.19;;;11.24;100.00
23363;BME280;11853;48.080;11.960;2023-11-19T10:03:55;94718.72;;;11.32;100.00
23363;BME280;11853;48.080;11.960;2023-11-19T10:06:21;94720.41;;;11.33;100.00
23363;BME280;11853;48.080;11.960;2023-11-19T10:08:48;94719.41;;;11.34;100.00
23363;BME280;11853;48.080;11.960;2023-11-19T10:11:13;94717.75;;;11.33;100.00
23363;BME280;11853;48.080;11.960;2023-11-19T10:13:40;94716.63;;;11.44;100.00
23363;BME280;11853;48.080;11.960;2023-11-19T10:16:13;94717.25;;;11.38;100.00
23363;BME280;11853;48.080;11.960;2023-11-19T10:18:45;94704.38;;;11.51;100.00
23363;BME280;11853;48.080;11.960;2023-11-19T10:21:14;94702.59;;;11.68;100.00
23363;BME280;11853;48.080;11.960;2023-11-19T10:23:57;94702.09;;;11.81;100.00
23363;BME280;11853;48.080;11.960;2023-11-19T10:26:26;94704.16;;;12.11;100.00
23363;BME280;11853;48.080;11.960;2023-11-19T10:28:51;94692.19;;;12.40;100.00
23363;BME280;11853;48.080;11.960;2023-11-19T10:31:18;94698.50;;;12.39;100.00
23363;BME280;11853;48.080;11.960;2023-11-19T10:33:46;94689.66;;;12.38;100.00
23363;BME280;11853;48.080;11.960;2023-11-19T10:36:12;94697.50;;;12.40;100.00
23363;BME280;11853;48.080;11.960;2023-11-19T10:38:54;94687.53;;;12.34;100.00
23363;BME280;11853;48.080;11.960;2023-11-19T10:41:30;94684.69;;;12.35;100.00
23363;BME280;11853;48.080;11.960;2023-11-19T10:43:56;94681.69;;;12.47;100.00
23363;BME280;11853;48.080;11.960;2023-11-19T10:46:22;94681.19;;;13.07;100.00
23363;BME280;11853;48.080;11.960;2023-11-19T10:48:49;94668.38;;;13.50;100.00
23363;BME280;11853;48.080;11.960;2023-11-19T10:51:19;94673.56;;;13.74;100.00
23363;BME280;11853;48.080;11.960;2023-11-19T10:53:49;94673.88;;;14.03;100.00
23363;BME280;11853;48.080;11.960;2023-11-19T10:56:17;94666.84;;;14.25;100.00
23363;BME280;11853;48.080;11.960;2023-11-19T10:58:46;94674.50;;;14.28;100.00
23363;BME280;11853;48.080;11.960;2023-11-19T11:01:17;94682.03;;;14.24;100.00
23363;BME280;11853;48.080;11.960;2023-11-19T11:03:46;94672.63;;;14.13;100.00
23363;BME280;11853;48.080;11.960;2023-11-19T11:06:13;94660.53;;;14.26;100.00
23363;BME280;11853;48.080;11.960;2023-11-19T11:08:39;94659.06;;;14.38;100.00
23363;BME280;11853;48.080;11.960;2023-11-19T11:11:05;94651.09;;;14.15;100.00
23363;BME280;11853;48.080;11.960;2023-11-19T11:13:33;94650.28;;;14.14;100.00
23363;BME280;11853;48.080;11.960;2023-11-19T11:15:59;94641.16;;;14.09;100.00
23363;BME280;11853;48.080;11.960;2023-11-19T11:18:26;94648.97;;;13.87;100.00
23363;BME280;11853;48.080;11.960;2023-11-19T11:21:07;94645.31;;;13.65;100.00
23363;BME280;11853;48.080;11.960;2023-11-19T11:32:36;94642.50;;;13.27;100.00
23363;BME280;11853;48.080;11.960;2023-11-19T11:38:02;94651.53;;;13.18;100.00
23363;BME280;11853;48.080;11.960;2023-11-19T11:40:28;94642.22;;;13.14;100.00
23363;BME280;11853;48.080;11.960;2023-11-19T11:42:54;94645.41;;;13.10;100.00
23363;BME280;11853;48.080;11.960;2023-11-19T11:45:35;94645.59;;;13.08;100.00
23363;BME280;11853;48.080;11.960;2023-11-19T11:48:11;94652.34;;;13.19;100.00
23363;BME280;11853;48.080;11.960;2023-11-19T11:50:49;94647.56;;;13.14;100.00
23363;BME280;11853;48.080;11.960;2023-11-19T11:53:18;94646.06;;;13.12;100.00
23363;BME280;11853;48.080;11.960;2023-11-19T11:58:17;94641.59;;;13.04;100.00
23363;BME280;11853;48.080;11.960;2023-11-19T12:00:43;94632.28;;;13.08;100.00
23363;BME280;11853;48.080;11.960;2023-11-19T12:03:09;94641.56;;;13.12;100.00
23363;BME280;11853;48.080;11.960;2023-11-19T12:05:45;94631.47;;;13.39;100.00
23363;BME280;11853;48.080;11.960;2023-11-19T12:08:12;94628.22;;;13.51;100.00
23363;BME280;11853;48.080;11.960;2023-11-19T12:10:47;94622.09;;;13.51;100.00
23363;BME280;11853;48.080;11.960;2023-11-19T12:13:14;94629.56;;;13.47;100.00
23363;BME280;11853;48.080;11.960;2023-11-19T12:18:29;94637.72;;;13.54;100.00
23363;BME280;11853;48.080;11.960;2023-11-19T12:20:56;94645.31;;;13.65;100.00
23363;BME280;11853;48.080;11.960;2023-11-19T12:23:24;94632.22;;;13.79;100.00
23363;BME280;11853;48.080;11.960;2023-11-19T12:25:50;94622.38;;;13.79;100.00
23363;BME280;11853;48.080;11.960;2023-11-19T12:28:16;94619.22;;;13.75;100.00
23363;BME280;11853;48.080;11.960;2023-11-19T12:30:45;94619.38;;;13.82;100.00
23363;BME280;11853;48.080;11.960;2023-11-19T12:33:12;94613.91;;;13.75;100.00
23363;BME280;11853;48.080;11.960;2023-11-19T12:35:45;94619.94;;;13.69;100.00
23363;BME280;11853;48.080;11.960;2023-11-19T12:38:20;94612.66;;;13.63;100.00
23363;BME280;11853;48.080;11.960;2023-11-19T12:41:09;94612.34;;;13.58;100.00
23363;BME280;11853;48.080;11.960;2023-11-19T12:43:40;94610.72;;;13.57;100.00
23363;BME280;11853;48.080;11.960;2023-11-19T12:46:26;94614.72;;;13.53;100.00
23363;BME280;11853;48.080;11.960;2023-11-19T12:48:56;94616.91;;;13.49;100.00
23363;BME280;11853;48.080;11.960;2023-11-19T12:51:31;94621.34;;;13.34;100.00
23363;BME280;11853;48.080;11.960;2023-11-19T12:53:57;94602.22;;;13.22;100.00
23363;BME280;11853;48.080;11.960;2023-11-19T12:56:24;94602.28;;;13.14;100.00
23363;BME280;11853;48.080;11.960;2023-11-19T12:58:50;94609.59;;;13.12;100.00
23363;BME280;11853;48.080;11.960;2023-11-19T13:01:20;94608.94;;;13.10;100.00
23363;BME280;11853;48.080;11.960;2023-11-19T13:03:46;94593.31;;;13.07;100.00
23363;BME280;11853;48.080;11.960;2023-11-19T13:06:15;94588.66;;;13.09;100.00
23363;BME280;11853;48.080;11.960;2023-11-19T13:08:49;94594.97;;;13.08;100.00
23363;BME280;11853;48.080;11.960;2023-11-19T13:11:42;94586.34;;;13.06;100.00